createdAt,value
2022-11-18T00:00:23.671Z,95285.88
2022-11-18T00:01:25.950Z,95291.63
2022-11-18T00:02:27.901Z,95288.59
2022-11-18T00:03:29.863Z,95288.47
2022-11-18T00:04:31.697Z,95285.41
2022-11-18T00:05:33.524Z,95287.59
2022-11-18T00:06:35.544Z,95281.38
2022-11-18T00:07:37.342Z,95273.59
2022-11-18T00:08:39.273Z,95282.75
2022-11-18T00:09:41.135Z,95280.72
2022-11-18T00:10:42.960Z,95289.50
2022-11-18T00:12:03.424Z,95280.44
2022-11-18T00:13:23.643Z,95283.34
2022-11-18T00:14:27.685Z,95282.00
2022-11-18T00:15:31.837Z,95283.47
2022-11-18T00:16:33.984Z,95288.66
2022-11-18T00:17:35.793Z,95284.03
2022-11-18T00:18:38.348Z,95285.28
2022-11-18T00:19:40.543Z,95279.88
2022-11-18T00:20:42.345Z,95279.41
2022-11-18T00:21:44.200Z,95280.19
2022-11-18T00:22:46.618Z,95279.00
2022-11-18T00:23:49.074Z,95279.41
2022-11-18T00:24:50.977Z,95278.63
2022-11-18T00:25:52.769Z,95279.78
2022-11-18T00:26:54.936Z,95282.78
2022-11-18T00:27:56.821Z,95278.28
2022-11-18T00:28:58.660Z,95277.13
2022-11-18T00:30:00.564Z,95283.56
2022-11-18T00:31:07.100Z,95272.41
2022-11-18T00:32:08.881Z,95267.13
2022-11-18T00:33:10.716Z,95268.69
2022-11-18T00:34:13.998Z,95263.84
2022-11-18T00:35:15.921Z,95256.19
2022-11-18T00:36:17.808Z,95255.53
2022-11-18T00:37:19.609Z,95252.47
2022-11-18T00:38:21.484Z,95249.66
2022-11-18T00:39:23.404Z,95248.19
2022-11-18T00:40:26.347Z,95243.81
2022-11-18T00:41:48.045Z,95241.88
2022-11-18T00:42:52.452Z,95237.47
2022-11-18T00:43:54.257Z,95242.09
2022-11-18T00:44:56.220Z,95247.84
2022-11-18T00:45:58.387Z,95251.22
2022-11-18T00:47:00.396Z,95259.78
2022-11-18T00:48:03.198Z,95259.78
2022-11-18T00:49:05.107Z,95251.59
2022-11-18T00:50:07.144Z,95247.53
2022-11-18T00:51:13.830Z,95247.53
2022-11-18T00:52:15.689Z,95246.97
2022-11-18T00:53:18.110Z,95242.56
2022-11-18T00:54:19.990Z,95243.78
2022-11-18T00:55:22.978Z,95249.63
2022-11-18T00:56:24.790Z,95244.22
2022-11-18T00:57:26.593Z,95244.00
2022-11-18T00:58:28.452Z,95247.38
2022-11-18T00:59:30.284Z,95249.88
2022-11-18T01:00:32.326Z,95242.66
2022-11-18T01:01:34.309Z,95247.50
2022-11-18T01:02:36.256Z,95241.50
2022-11-18T01:03:38.046Z,95244.66
2022-11-18T01:04:39.876Z,95239.69
2022-11-18T01:05:42.089Z,95237.31
2022-11-18T01:06:43.922Z,95239.66
2022-11-18T01:07:46.498Z,95236.25
2022-11-18T01:08:48.387Z,95235.56
2022-11-18T01:09:50.215Z,95239.16
2022-11-18T01:10:52.829Z,95233.22
2022-11-18T01:12:13.077Z,95241.09
2022-11-18T01:13:19.589Z,95240.66
2022-11-18T01:14:21.295Z,95237.72
2022-11-18T01:15:23.096Z,95238.03
2022-11-18T01:16:26.327Z,95248.50
2022-11-18T01:17:30.363Z,95239.22
2022-11-18T01:18:32.203Z,95243.84
2022-11-18T01:19:34.008Z,95246.06
2022-11-18T01:20:36.013Z,95240.09
2022-11-18T01:21:37.809Z,95232.31
2022-11-18T01:22:39.671Z,95234.09
2022-11-18T01:23:41.490Z,95228.03
2022-11-18T01:24:43.293Z,95236.47
2022-11-18T01:25:45.978Z,95232.00
2022-11-18T01:26:47.790Z,95233.50
2022-11-18T01:27:49.670Z,95232.94
2022-11-18T01:28:55.263Z,95230.88
2022-11-18T01:29:57.054Z,95233.69
2022-11-18T01:31:05.862Z,95232.44
2022-11-18T01:32:24.912Z,95225.03
2022-11-18T01:33:27.487Z,95232.00
2022-11-18T01:34:29.679Z,95226.38
2022-11-18T01:35:35.537Z,95224.59
2022-11-18T01:36:37.358Z,95227.97
2022-11-18T01:37:39.182Z,95232.13
2022-11-18T01:38:41.080Z,95238.56
2022-11-18T01:39:42.973Z,95232.81
2022-11-18T01:40:44.782Z,95223.22
2022-11-18T01:41:46.578Z,95232.94
2022-11-18T01:42:48.348Z,95223.34
2022-11-18T01:43:54.999Z,95231.91
2022-11-18T01:44:59.786Z,95225.50
2022-11-18T01:46:01.643Z,95227.75
2022-11-18T01:47:03.459Z,95232.81
2022-11-18T01:48:08.970Z,95232.75
2022-11-18T01:49:12.493Z,95227.66
2022-11-18T01:50:15.830Z,95233.78
2022-11-18T01:51:20.303Z,95231.31
2022-11-18T01:52:23.317Z,95232.66
2022-11-18T01:53:27.699Z,95231.00
2022-11-18T01:54:35.811Z,95230.56
2022-11-18T01:55:41.825Z,95233.72
2022-11-18T01:56:45.315Z,95234.88
2022-11-18T01:57:48.290Z,95226.63
2022-11-18T01:58:52.352Z,95225.06
2022-11-18T01:59:55.432Z,95226.63
2022-11-18T02:00:57.381Z,95212.47
2022-11-18T02:02:00.538Z,95213.25
2022-11-18T02:03:03.384Z,95214.81
2022-11-18T02:04:05.813Z,95206.03
2022-11-18T02:05:08.977Z,95206.25
2022-11-18T02:06:11.620Z,95211.88
2022-11-18T02:07:13.861Z,95218.84
2022-11-18T02:08:17.837Z,95222.69
2022-11-18T02:09:19.827Z,95227.53
2022-11-18T02:10:23.126Z,95231.00
2022-11-18T02:11:43.662Z,95227.03
2022-11-18T02:12:45.479Z,95225.59
2022-11-18T02:13:47.273Z,95224.44
2022-11-18T02:14:49.531Z,95227.63
2022-11-18T02:15:51.253Z,95223.22
2022-11-18T02:16:55.839Z,95224.25
2022-11-18T02:18:03.584Z,95223.00
2022-11-18T02:19:12.766Z,95216.69
2022-11-18T02:20:17.273Z,95216.88
2022-11-18T02:21:28.680Z,95210.72
2022-11-18T02:22:36.489Z,95205.28
2022-11-18T02:23:47.488Z,95206.44
2022-11-18T02:24:49.214Z,95212.22
2022-11-18T02:25:51.040Z,95212.41
2022-11-18T02:27:11.458Z,95213.88
2022-11-18T02:28:25.141Z,95206.41
2022-11-18T02:29:39.099Z,95211.66
2022-11-18T02:30:53.974Z,95206.47
2022-11-18T02:31:59.650Z,95203.44
2022-11-18T02:33:07.307Z,95202.78
2022-11-18T02:34:18.874Z,95197.59
2022-11-18T02:35:26.877Z,95202.78
2022-11-18T02:36:37.709Z,95201.91
2022-11-18T02:37:44.123Z,95202.06
2022-11-18T02:38:48.844Z,95205.16
2022-11-18T02:40:10.833Z,95203.56
2022-11-18T02:41:18.590Z,95195.09
2022-11-18T02:42:21.592Z,95199.06
2022-11-18T02:43:30.139Z,95200.41
2022-11-18T02:44:32.119Z,95189.72
2022-11-18T02:45:35.370Z,95194.09
2022-11-18T02:46:39.584Z,95189.47
2022-11-18T02:47:43.538Z,95191.84
2022-11-18T02:48:48.274Z,95182.16
2022-11-18T02:49:54.352Z,95175.94
2022-11-18T02:50:57.276Z,95173.59
2022-11-18T02:52:00.935Z,95173.59
2022-11-18T02:53:04.522Z,95166.25
2022-11-18T02:54:08.327Z,95165.25
2022-11-18T02:55:12.923Z,95162.50
2022-11-18T02:56:16.259Z,95162.72
2022-11-18T02:57:19.661Z,95152.34
2022-11-18T02:58:21.992Z,95157.91
2022-11-18T02:59:23.905Z,95154.53
2022-11-18T03:00:25.850Z,95157.53
2022-11-18T03:01:29.219Z,95162.50
2022-11-18T03:02:49.154Z,95154.88
2022-11-18T03:03:51.073Z,95155.00
2022-11-18T03:04:56.332Z,95150.38
2022-11-18T03:06:16.382Z,95158.72
2022-11-18T03:07:21.319Z,95141.03
2022-11-18T03:08:26.390Z,95153.84
2022-11-18T03:09:30.197Z,95166.44
2022-11-18T03:10:36.129Z,95172.31
2022-11-18T03:11:49.014Z,95180.66
2022-11-18T03:13:05.623Z,95189.44
2022-11-18T03:14:25.535Z,95197.78
2022-11-18T03:15:38.162Z,95201.53
2022-11-18T03:16:45.112Z,95191.38
2022-11-18T03:18:01.541Z,95188.00
2022-11-18T03:19:15.794Z,95190.59
2022-11-18T03:20:20.774Z,95193.28
2022-11-18T03:21:35.976Z,95194.09
2022-11-18T03:22:41.434Z,95206.41
2022-11-18T03:23:55.273Z,95208.13
2022-11-18T03:25:04.507Z,95227.19
2022-11-18T03:26:10.138Z,95237.69
2022-11-18T03:27:24.382Z,95242.06
2022-11-18T03:28:44.714Z,95242.66
2022-11-18T03:29:52.198Z,95241.75
2022-11-18T03:31:17.053Z,95233.53
2022-11-18T03:32:21.862Z,95232.66
2022-11-18T03:33:26.753Z,95234.66
2022-11-18T03:34:37.994Z,95236.06
2022-11-18T03:35:42.202Z,95229.28
2022-11-18T03:36:52.105Z,95224.66
2022-11-18T03:37:57.280Z,95228.84
2022-11-18T03:39:01.052Z,95226.25
2022-11-18T03:40:16.211Z,95235.59
2022-11-18T03:41:19.238Z,95224.78
2022-11-18T03:42:34.005Z,95229.97
2022-11-18T03:43:39.439Z,95230.56
2022-11-18T03:44:47.082Z,95227.75
2022-11-18T03:45:58.322Z,95220.53
2022-11-18T03:47:07.021Z,95218.81
2022-11-18T03:48:15.220Z,95218.25
2022-11-18T03:49:27.347Z,95219.16
2022-11-18T03:50:38.498Z,95227.38
2022-11-18T03:51:42.485Z,95222.75
2022-11-18T03:52:45.061Z,95226.16
2022-11-18T03:53:53.141Z,95233.50
2022-11-18T03:54:57.463Z,95237.66
2022-11-18T03:56:02.488Z,95248.81
2022-11-18T03:57:09.729Z,95244.72
2022-11-18T03:58:34.865Z,95233.47
2022-11-18T03:59:40.429Z,95242.34
2022-11-18T04:00:44.348Z,95240.31
2022-11-18T04:01:53.801Z,95242.06
2022-11-18T04:02:55.850Z,95242.88
2022-11-18T04:03:57.794Z,95244.78
2022-11-18T04:05:01.057Z,95237.69
2022-11-18T04:06:14.310Z,95237.09
2022-11-18T04:07:32.894Z,95224.94
2022-11-18T04:08:37.129Z,95225.28
2022-11-18T04:09:44.442Z,95227.22
2022-11-18T04:10:48.354Z,95229.94
2022-11-18T04:12:05.627Z,95219.09
2022-11-18T04:13:09.930Z,95218.78
2022-11-18T04:14:13.450Z,95213.38
2022-11-18T04:15:16.098Z,95213.38
2022-11-18T04:16:17.913Z,95212.81
2022-11-18T04:17:24.655Z,95209.66
2022-11-18T04:18:26.762Z,95203.22
2022-11-18T04:19:28.602Z,95202.59
2022-11-18T04:20:32.045Z,95197.75
2022-11-18T04:21:33.956Z,95200.44
2022-11-18T04:22:35.731Z,95206.78
2022-11-18T04:23:37.535Z,95196.97
2022-11-18T04:24:39.903Z,95199.13
2022-11-18T04:25:41.755Z,95198.09
2022-11-18T04:26:43.774Z,95195.97
2022-11-18T04:27:45.566Z,95189.38
2022-11-18T04:28:47.375Z,95194.38
2022-11-18T04:29:49.430Z,95188.75
2022-11-18T04:30:51.231Z,95191.09
2022-11-18T04:31:53.019Z,95190.09
2022-11-18T04:32:54.902Z,95191.66
2022-11-18T04:33:56.761Z,95189.63
2022-11-18T04:34:58.644Z,95184.22
2022-11-18T04:36:00.475Z,95179.03
2022-11-18T04:37:02.447Z,95177.22
2022-11-18T04:38:05.114Z,95180.16
2022-11-18T04:39:07.252Z,95179.16
2022-11-18T04:40:09.665Z,95189.53
2022-11-18T04:41:11.446Z,95182.53
2022-11-18T04:42:13.278Z,95190.09
2022-11-18T04:43:15.086Z,95177.69
2022-11-18T04:44:17.044Z,95170.91
2022-11-18T04:45:19.008Z,95172.50
2022-11-18T04:46:20.896Z,95176.66
2022-11-18T04:47:22.739Z,95177.47
2022-11-18T04:48:24.582Z,95168.88
2022-11-18T04:49:27.228Z,95165.28
2022-11-18T04:50:29.097Z,95167.09
2022-11-18T04:51:30.908Z,95172.50
2022-11-18T04:52:32.764Z,95169.13
2022-11-18T04:53:34.616Z,95173.41
2022-11-18T04:54:36.431Z,95169.22
2022-11-18T04:55:38.338Z,95172.84
2022-11-18T04:56:45.652Z,95174.41
2022-11-18T04:57:50.499Z,95170.81
2022-11-18T04:58:52.560Z,95167.97
2022-11-18T04:59:54.470Z,95165.97
2022-11-18T05:00:56.338Z,95162.13
2022-11-18T05:01:59.769Z,95165.28
2022-11-18T05:03:01.573Z,95160.09
2022-11-18T05:04:04.657Z,95162.13
2022-11-18T05:05:06.725Z,95167.31
2022-11-18T05:06:08.610Z,95170.13
2022-11-18T05:07:14.057Z,95174.97
2022-11-18T05:08:15.854Z,95175.44
2022-11-18T05:09:18.275Z,95171.81
2022-11-18T05:10:20.382Z,95178.25
2022-11-18T05:11:40.861Z,95178.69
2022-11-18T05:12:52.834Z,95177.13
2022-11-18T05:13:54.640Z,95182.31
2022-11-18T05:14:56.529Z,95189.38
2022-11-18T05:16:01.178Z,95190.41
2022-11-18T05:17:04.692Z,95194.38
2022-11-18T05:18:06.536Z,95189.97
2022-11-18T05:19:08.785Z,95188.97
2022-11-18T05:20:11.300Z,95198.09
2022-11-18T05:21:13.106Z,95191.44
2022-11-18T05:22:15.280Z,95195.38
2022-11-18T05:23:17.030Z,95200.91
2022-11-18T05:24:18.988Z,95202.50
2022-11-18T05:25:20.785Z,95195.72
2022-11-18T05:26:22.659Z,95198.78
2022-11-18T05:27:24.630Z,95201.13
2022-11-18T05:28:26.968Z,95193.34
2022-11-18T05:29:28.863Z,95199.91
2022-11-18T05:30:30.678Z,95198.44
2022-11-18T05:31:32.992Z,95205.22
2022-11-18T05:32:34.836Z,95204.22
2022-11-18T05:33:36.859Z,95202.41
2022-11-18T05:34:39.878Z,95205.00
2022-11-18T05:35:41.639Z,95199.59
2022-11-18T05:36:43.490Z,95206.34
2022-11-18T05:37:45.368Z,95205.56
2022-11-18T05:38:47.224Z,95214.13
2022-11-18T05:39:49.049Z,95213.56
2022-11-18T05:40:50.891Z,95210.97
2022-11-18T05:42:11.381Z,95209.97
2022-11-18T05:43:13.270Z,95209.97
2022-11-18T05:44:15.378Z,95206.03
2022-11-18T05:45:19.717Z,95212.00
2022-11-18T05:46:21.632Z,95207.81
2022-11-18T05:47:25.324Z,95205.22
2022-11-18T05:48:27.379Z,95205.69
2022-11-18T05:49:29.236Z,95201.13
2022-11-18T05:50:32.288Z,95199.78
2022-11-18T05:51:34.560Z,95206.56
2022-11-18T05:52:36.352Z,95198.31
2022-11-18T05:53:38.166Z,95199.44
2022-11-18T05:54:42.713Z,95200.03
2022-11-18T05:56:03.161Z,95203.66
2022-11-18T05:57:04.950Z,95196.84
2022-11-18T05:58:06.709Z,95201.69
2022-11-18T05:59:08.750Z,95211.28
2022-11-18T06:00:11.098Z,95203.63
2022-11-18T06:01:14.845Z,95205.88
2022-11-18T06:02:19.434Z,95204.31
2022-11-18T06:03:30.731Z,95209.59
2022-11-18T06:04:35.125Z,95206.00
2022-11-18T06:05:37.185Z,95213.78
2022-11-18T06:06:39.300Z,95216.13
2022-11-18T06:07:45.227Z,95209.50
2022-11-18T06:08:49.828Z,95219.44
2022-11-18T06:09:55.153Z,95216.06
2022-11-18T06:10:57.000Z,95223.38
2022-11-18T06:12:00.763Z,95227.34
2022-11-18T06:13:06.469Z,95227.09
2022-11-18T06:14:11.513Z,95225.31
2022-11-18T06:15:19.015Z,95223.03
2022-11-18T06:16:24.243Z,95231.41
2022-11-18T06:17:28.821Z,95225.78
2022-11-18T06:18:31.963Z,95231.19
2022-11-18T06:19:34.330Z,95227.81
2022-11-18T06:20:38.511Z,95226.78
2022-11-18T06:21:40.317Z,95233.00
2022-11-18T06:22:46.261Z,95233.44
2022-11-18T06:23:48.745Z,95235.03
2022-11-18T06:24:50.701Z,95233.22
2022-11-18T06:25:52.532Z,95234.56
2022-11-18T06:26:54.376Z,95242.13
2022-11-18T06:27:57.898Z,95239.31
2022-11-18T06:28:59.881Z,95241.34
2022-11-18T06:30:01.780Z,95243.03
2022-11-18T06:31:03.587Z,95242.25
2022-11-18T06:32:05.473Z,95234.00
2022-11-18T06:33:07.576Z,95240.78
2022-11-18T06:34:09.430Z,95242.13
2022-11-18T06:35:11.258Z,95242.91
2022-11-18T06:36:13.088Z,95233.34
2022-11-18T06:37:14.919Z,95244.50
2022-11-18T06:38:16.986Z,95239.88
2022-11-18T06:39:19.115Z,95241.22
2022-11-18T06:40:21.403Z,95246.19
2022-11-18T06:41:23.216Z,95245.97
2022-11-18T06:42:43.649Z,95246.78
2022-11-18T06:43:45.614Z,95241.56
2022-11-18T06:44:47.626Z,95247.56
2022-11-18T06:46:09.626Z,95236.59
2022-11-18T06:47:11.477Z,95242.00
2022-11-18T06:48:13.218Z,95250.81
2022-11-18T06:49:15.244Z,95257.50
2022-11-18T06:50:17.411Z,95254.91
2022-11-18T06:51:19.260Z,95254.44
2022-11-18T06:52:22.266Z,95247.44
2022-11-18T06:53:24.526Z,95259.19
2022-11-18T06:54:26.379Z,95254.00
2022-11-18T06:55:28.176Z,95257.03
2022-11-18T06:56:29.986Z,95254.09
2022-11-18T06:57:31.807Z,95254.09
2022-11-18T06:58:33.706Z,95251.25
2022-11-18T06:59:35.580Z,95252.88
2022-11-18T07:00:37.479Z,95251.03
2022-11-18T07:01:41.837Z,95248.66
2022-11-18T07:02:43.611Z,95257.28
2022-11-18T07:03:46.310Z,95258.63
2022-11-18T07:04:48.225Z,95252.88
2022-11-18T07:05:50.092Z,95257.50
2022-11-18T07:06:52.025Z,95260.09
2022-11-18T07:07:53.905Z,95260.44
2022-11-18T07:08:56.363Z,95258.84
2022-11-18T07:09:58.190Z,95255.69
2022-11-18T07:10:59.932Z,95257.50
2022-11-18T07:12:01.784Z,95262.22
2022-11-18T07:13:03.587Z,95262.78
2022-11-18T07:14:05.453Z,95266.75
2022-11-18T07:15:07.602Z,95251.97
2022-11-18T07:16:11.270Z,95262.69
2022-11-18T07:17:13.141Z,95254.69
2022-11-18T07:18:14.960Z,95253.44
2022-11-18T07:19:17.023Z,95256.59
2022-11-18T07:20:19.231Z,95253.44
2022-11-18T07:21:22.376Z,95256.25
2022-11-18T07:22:24.320Z,95264.03
2022-11-18T07:23:26.155Z,95265.06
2022-11-18T07:24:27.959Z,95264.47
2022-11-18T07:25:29.851Z,95268.88
2022-11-18T07:26:31.630Z,95266.06
2022-11-18T07:27:33.493Z,95265.50
2022-11-18T07:28:35.322Z,95269.00
2022-11-18T07:29:37.136Z,95271.47
2022-11-18T07:30:39.229Z,95266.06
2022-11-18T07:31:41.165Z,95271.03
2022-11-18T07:32:42.976Z,95274.19
2022-11-18T07:33:45.257Z,95278.94
2022-11-18T07:34:47.138Z,95272.72
2022-11-18T07:35:49.105Z,95281.09
2022-11-18T07:36:50.862Z,95282.22
2022-11-18T07:37:52.717Z,95288.19
2022-11-18T07:38:55.268Z,95295.56
2022-11-18T07:40:00.130Z,95292.97
2022-11-18T07:41:06.287Z,95293.16
2022-11-18T07:42:09.543Z,95302.00
2022-11-18T07:43:11.257Z,95303.56
2022-11-18T07:44:13.189Z,95301.75
2022-11-18T07:45:15.096Z,95309.31
2022-11-18T07:46:19.715Z,95299.97
2022-11-18T07:47:21.976Z,95312.13
2022-11-18T07:48:23.755Z,95309.78
2022-11-18T07:49:25.670Z,95305.03
2022-11-18T07:50:27.576Z,95306.63
2022-11-18T07:51:30.861Z,95310.22
2022-11-18T07:52:32.678Z,95312.25
2022-11-18T07:53:34.764Z,95313.25
2022-11-18T07:54:36.602Z,95313.72
2022-11-18T07:55:38.371Z,95319.91
2022-11-18T07:56:40.405Z,95319.91
2022-11-18T07:57:42.270Z,95315.53
2022-11-18T07:58:44.342Z,95313.50
2022-11-18T07:59:46.172Z,95308.31
2022-11-18T08:00:48.066Z,95306.28
2022-11-18T08:01:50.138Z,95315.06
2022-11-18T08:02:52.022Z,95319.56
2022-11-18T08:03:53.857Z,95324.78
2022-11-18T08:04:55.653Z,95327.13
2022-11-18T08:06:01.406Z,95332.31
2022-11-18T08:07:03.329Z,95322.38
2022-11-18T08:08:05.262Z,95318.19
2022-11-18T08:09:07.691Z,95323.63
2022-11-18T08:10:09.760Z,95318.44
2022-11-18T08:11:16.243Z,95312.00
2022-11-18T08:12:22.388Z,95318.75
2022-11-18T08:13:24.803Z,95312.34
2022-11-18T08:14:27.328Z,95315.53
2022-11-18T08:15:29.114Z,95314.72
2022-11-18T08:16:30.936Z,95311.31
2022-11-18T08:17:33.104Z,95312.94
2022-11-18T08:18:34.911Z,95299.69
2022-11-18T08:19:36.723Z,95302.06
2022-11-18T08:20:38.519Z,95298.22
2022-11-18T08:21:40.363Z,95312.81
2022-11-18T08:22:42.238Z,95309.22
2022-11-18T08:23:44.023Z,95310.91
2022-11-18T08:24:45.886Z,95314.13
2022-11-18T08:25:47.789Z,95311.31
2022-11-18T08:26:49.593Z,95303.88
2022-11-18T08:27:51.524Z,95303.88
2022-11-18T08:28:53.755Z,95314.13
2022-11-18T08:29:55.707Z,95310.97
2022-11-18T08:30:57.525Z,95309.97
2022-11-18T08:31:59.316Z,95304.31
2022-11-18T08:33:01.446Z,95308.16
2022-11-18T08:34:04.898Z,95309.63
2022-11-18T08:35:11.076Z,95315.34
2022-11-18T08:36:15.644Z,95314.56
2022-11-18T08:37:17.684Z,95319.66
2022-11-18T08:38:19.651Z,95325.97
2022-11-18T08:39:21.539Z,95320.38
2022-11-18T08:40:23.561Z,95315.75
2022-11-18T08:41:31.272Z,95321.50
2022-11-18T08:42:34.460Z,95323.06
2022-11-18T08:43:37.109Z,95325.09
2022-11-18T08:44:39.093Z,95323.53
2022-11-18T08:45:41.391Z,95328.25
2022-11-18T08:46:45.834Z,95324.19
2022-11-18T08:47:47.734Z,95323.41
2022-11-18T08:48:49.724Z,95323.63
2022-11-18T08:49:51.507Z,95330.22
2022-11-18T08:50:53.452Z,95332.91
2022-11-18T08:51:55.481Z,95328.19
2022-11-18T08:52:57.326Z,95325.13
2022-11-18T08:53:59.357Z,95327.50
2022-11-18T08:55:01.772Z,95338.66
2022-11-18T08:56:03.583Z,95334.28
2022-11-18T08:57:05.405Z,95336.31
2022-11-18T08:58:07.235Z,95336.31
2022-11-18T08:59:09.370Z,95337.06
2022-11-18T09:00:11.791Z,95342.94
2022-11-18T09:01:13.615Z,95342.69
2022-11-18T09:02:19.506Z,95343.06
2022-11-18T09:03:21.561Z,95346.44
2022-11-18T09:04:23.347Z,95343.28
2022-11-18T09:05:25.143Z,95347.25
2022-11-18T09:06:27.211Z,95345.09
2022-11-18T09:07:29.210Z,95344.66
2022-11-18T09:08:31.137Z,95342.38
2022-11-18T09:09:33.039Z,95338.34
2022-11-18T09:10:34.853Z,95338.44
2022-11-18T09:11:38.346Z,95341.63
2022-11-18T09:12:40.171Z,95343.22
2022-11-18T09:15:19.949Z,95344.00
2022-11-18T09:16:27.863Z,95343.06
2022-11-18T09:17:30.127Z,95340.94
2022-11-18T09:18:32.052Z,95345.69
2022-11-18T09:19:47.276Z,95337.66
2022-11-18T09:21:16.337Z,95346.25
2022-11-18T09:22:18.213Z,95332.13
2022-11-18T09:23:19.996Z,95337.66
2022-11-18T09:24:21.809Z,95334.47
2022-11-18T09:25:23.655Z,95340.81
2022-11-18T09:26:25.658Z,95338.56
2022-11-18T09:27:27.582Z,95351.91
2022-11-18T09:28:29.513Z,95351.44
2022-11-18T09:29:31.638Z,95349.41
2022-11-18T09:30:33.478Z,95345.56
2022-11-18T09:31:35.356Z,95333.97
2022-11-18T09:32:37.165Z,95344.91
2022-11-18T09:33:39.735Z,95335.53
2022-11-18T09:34:41.607Z,95336.31
2022-11-18T09:35:43.954Z,95340.28
2022-11-18T09:36:46.419Z,95338.25
2022-11-18T09:37:48.244Z,95340.59
2022-11-18T09:38:53.195Z,95338.00
2022-11-18T09:39:55.380Z,95336.44
2022-11-18T09:40:57.187Z,95329.91
2022-11-18T09:42:04.914Z,95334.84
2022-11-18T09:43:29.709Z,95335.19
2022-11-18T09:44:41.402Z,95334.63
2022-11-18T09:45:46.175Z,95331.78
2022-11-18T09:46:53.930Z,95333.72
2022-11-18T09:47:57.406Z,95334.50
2022-11-18T09:49:14.801Z,95333.03
2022-11-18T09:50:47.787Z,95337.22
2022-11-18T09:51:42.020Z,95340.47
2022-11-18T09:52:43.754Z,95333.47
2022-11-18T09:53:46.273Z,95330.09
2022-11-18T09:54:48.182Z,95325.47
2022-11-18T09:55:51.636Z,95324.13
2022-11-18T09:56:55.546Z,95329.75
2022-11-18T09:57:59.176Z,95328.97
2022-11-18T09:59:01.295Z,95333.72
2022-11-18T10:00:06.658Z,95330.66
2022-11-18T10:01:18.332Z,95339.91
2022-11-18T10:02:26.770Z,95340.47
2022-11-18T10:03:30.129Z,95337.44
2022-11-18T10:04:32.009Z,95333.59
2022-11-18T10:05:48.521Z,95339.16
2022-11-18T10:06:51.255Z,95332.50
2022-11-18T10:08:11.178Z,95332.50
2022-11-18T10:09:18.789Z,95327.63
2022-11-18T10:10:25.832Z,95326.03
2022-11-18T10:11:40.103Z,95338.59
2022-11-18T10:12:49.953Z,95331.56
2022-11-18T10:14:14.870Z,95328.28
2022-11-18T10:15:21.315Z,95325.47
2022-11-18T10:16:42.536Z,95332.03
2022-11-18T10:17:44.687Z,95331.47
2022-11-18T10:19:15.624Z,95327.41
2022-11-18T10:20:36.123Z,95319.94
2022-11-18T10:21:48.186Z,95316.88
2022-11-18T10:22:57.159Z,95325.03
2022-11-18T10:24:01.148Z,95315.19
2022-11-18T10:25:02.953Z,95318.06
2022-11-18T10:26:04.873Z,95309.09
2022-11-18T10:27:10.889Z,95303.13
2022-11-18T10:28:33.016Z,95303.81
2022-11-18T10:29:34.836Z,95310.00
2022-11-18T10:30:36.664Z,95312.16
2022-11-18T10:31:52.948Z,95305.63
2022-11-18T10:33:00.093Z,95302.47
2022-11-18T10:34:02.465Z,95308.22
2022-11-18T10:35:04.421Z,95299.38
2022-11-18T10:36:09.283Z,95300.97
2022-11-18T10:37:34.471Z,95295.78
2022-11-18T10:38:49.743Z,95291.47
2022-11-18T10:39:53.442Z,95296.66
2022-11-18T10:41:13.613Z,95291.72
2022-11-18T10:42:25.804Z,95293.28
2022-11-18T10:43:49.239Z,95289.13
2022-11-18T10:44:51.259Z,95289.78
2022-11-18T10:45:53.007Z,95285.72
2022-11-18T10:46:54.861Z,95290.25
2022-11-18T10:47:59.426Z,95288.22
2022-11-18T10:49:10.387Z,95289.00
2022-11-18T10:50:35.608Z,95287.19
2022-11-18T10:51:42.047Z,95274.19
2022-11-18T10:52:52.327Z,95278.94
2022-11-18T10:54:07.250Z,95287.75
2022-11-18T10:55:19.203Z,95281.06
2022-11-18T10:56:21.212Z,95270.13
2022-11-18T10:57:25.056Z,95273.28
2022-11-18T10:58:27.671Z,95277.69
2022-11-18T10:59:31.989Z,95273.06
2022-11-18T11:00:39.503Z,95271.81
2022-11-18T11:01:41.306Z,95282.75
2022-11-18T11:02:43.183Z,95283.31
2022-11-18T11:03:55.155Z,95282.13
2022-11-18T11:04:57.793Z,95272.03
2022-11-18T11:06:18.536Z,95278.84
2022-11-18T11:07:32.715Z,95279.28
2022-11-18T11:08:37.640Z,95265.38
2022-11-18T11:09:39.926Z,95260.53
2022-11-18T11:10:41.669Z,95259.88
2022-11-18T11:11:56.113Z,95264.16
2022-11-18T11:13:00.724Z,95263.13
2022-11-18T11:14:07.795Z,95263.13
2022-11-18T11:15:11.988Z,95263.13
2022-11-18T11:16:14.240Z,95260.19
2022-11-18T11:17:19.379Z,95261.97
2022-11-18T11:18:41.859Z,95258.97
2022-11-18T11:19:59.362Z,95250.69
2022-11-18T11:21:01.192Z,95260.19
2022-11-18T11:22:03.109Z,95258.13
2022-11-18T11:23:09.382Z,95255.53
2022-11-18T11:24:13.152Z,95265.84
2022-11-18T11:28:20.059Z,95258.13
2022-11-18T11:29:27.931Z,95259.94
2022-11-18T11:30:35.616Z,95262.91
2022-11-18T11:31:49.893Z,95269.69
2022-11-18T11:33:11.584Z,95259.53
2022-11-18T11:34:31.885Z,95258.28
2022-11-18T11:35:39.051Z,95255.22
2022-11-18T11:36:53.246Z,95260.66
2022-11-18T11:38:07.036Z,95257.25
2022-11-18T11:39:17.987Z,95265.16
2022-11-18T11:40:30.182Z,95255.09
2022-11-18T11:41:49.927Z,95256.34
2022-11-18T11:42:54.981Z,95252.50
2022-11-18T11:44:15.602Z,95256.56
2022-11-18T11:45:25.834Z,95254.31
2022-11-18T11:46:36.905Z,95255.66
2022-11-18T11:47:50.947Z,95250.81
2022-11-18T11:49:01.875Z,95251.72
2022-11-18T11:50:06.649Z,95249.19
2022-11-18T11:51:27.264Z,95259.38
2022-11-18T11:52:42.122Z,95272.94
2022-11-18T11:53:56.270Z,95273.16
2022-11-18T11:55:10.317Z,95271.59
2022-11-18T11:56:19.625Z,95274.19
2022-11-18T11:57:24.070Z,95275.44
2022-11-18T11:58:44.286Z,95284.25
2022-11-18T11:59:49.054Z,95275.31
2022-11-18T12:00:58.489Z,95273.97
2022-11-18T12:02:18.767Z,95267.53
2022-11-18T12:03:37.282Z,95259.94
2022-11-18T12:04:59.374Z,95268.31
2022-11-18T12:06:01.259Z,95273.28
2022-11-18T12:07:03.689Z,95262.44
2022-11-18T12:08:16.992Z,95264.13
2022-11-18T12:09:34.132Z,95268.28
2022-11-18T12:10:45.303Z,95273.41
2022-11-18T12:11:51.807Z,95276.22
2022-11-18T12:13:11.627Z,95273.97
2022-11-18T12:14:20.975Z,95273.72
2022-11-18T12:15:38.113Z,95293.38
2022-11-18T12:17:00.317Z,95286.06
2022-11-18T12:18:17.510Z,95268.22
2022-11-18T12:19:20.960Z,95290.91
2022-11-18T12:20:40.831Z,95303.22
2022-11-18T12:21:42.571Z,95292.94
2022-11-18T12:23:03.271Z,95281.03
2022-11-18T12:24:20.950Z,95279.66
2022-11-18T12:25:41.302Z,95290.56
2022-11-18T12:26:44.035Z,95283.53
2022-11-18T12:27:45.921Z,95297.09
2022-11-18T12:28:49.621Z,95289.28
2022-11-18T12:29:51.403Z,95289.75
2022-11-18T12:31:16.311Z,95291.47
2022-11-18T12:32:36.814Z,95296.44
2022-11-18T12:33:55.488Z,95294.41
2022-11-18T12:35:23.421Z,95287.47
2022-11-18T12:36:30.379Z,95274.59
2022-11-18T12:37:32.104Z,95284.44
2022-11-18T12:38:33.846Z,95295.63
2022-11-18T12:39:41.587Z,95299.28
2022-11-18T12:40:52.562Z,95292.59
2022-11-18T12:42:20.456Z,95289.28
2022-11-18T12:43:49.748Z,95288.38
2022-11-18T12:44:52.917Z,95300.59
2022-11-18T12:45:55.544Z,95288.16
2022-11-18T12:46:58.146Z,95288.47
2022-11-18T12:48:00.034Z,95284.63
2022-11-18T12:49:20.622Z,95284.84
2022-11-18T12:50:42.446Z,95301.72
2022-11-18T12:51:44.672Z,95313.81
2022-11-18T12:52:47.281Z,95298.13
2022-11-18T12:53:49.872Z,95298.69